sensor_id;sensor_type;location;lat;lon;timestamp;temperature;humidity
5868;DHT22;2960;49.142;7.768;2022-11-20T00:00:23;9.40;77.70
5868;DHT22;2960;49.142;7.768;2022-11-20T00:02:50;9.40;77.70
5868;DHT22;2960;49.142;7.768;2022-11-20T00:05:17;9.40;77.80
5868;DHT22;2960;49.142;7.768;2022-11-20T00:07:45;9.40;78.50
5868;DHT22;2960;49.142;7.768;2022-11-20T00:10:12;9.40;77.80
5868;DHT22;2960;49.142;7.768;2022-11-20T00:12:39;9.40;77.90
5868;DHT22;2960;49.142;7.768;2022-11-20T00:15:09;9.40;77.90
5868;DHT22;2960;49.142;7.768;2022-11-20T00:17:36;9.30;77.90
5868;DHT22;2960;49.142;7.768;2022-11-20T00:20:04;9.40;78.70
5868;DHT22;2960;49.142;7.768;2022-11-20T00:22:32;9.30;77.90
5868;DHT22;2960;49.142;7.768;2022-11-20T00:24:59;9.30;77.80
5868;DHT22;2960;49.142;7.768;2022-11-20T00:27:26;9.30;77.90
5868;DHT22;2960;49.142;7.768;2022-11-20T00:29:53;9.40;78.00
5868;DHT22;2960;49.142;7.768;2022-11-20T00:32:21;9.40;77.90
5868;DHT22;2960;49.142;7.768;2022-11-20T00:34:48;9.30;77.80
5868;DHT22;2960;49.142;7.768;2022-11-20T00:37:15;9.30;78.60
5868;DHT22;2960;49.142;7.768;2022-11-20T00:39:42;9.30;77.80
5868;DHT22;2960;49.142;7.768;2022-11-20T00:42:09;9.40;77.90
5868;DHT22;2960;49.142;7.768;2022-11-20T00:44:36;9.30;77.70
5868;DHT22;2960;49.142;7.768;2022-11-20T00:47:03;9.30;77.70
5868;DHT22;2960;49.142;7.768;2022-11-20T00:49:32;9.30;77.60
5868;DHT22;2960;49.142;7.768;2022-11-20T00:51:59;9.40;77.70
5868;DHT22;2960;49.142;7.768;2022-11-20T00:54:26;9.40;77.70
5868;DHT22;2960;49.142;7.768;2022-11-20T00:56:53;9.40;77.60
5868;DHT22;2960;49.142;7.768;2022-11-20T00:59:20;9.40;77.70
5868;DHT22;2960;49.142;7.768;2022-11-20T01:01:47;9.40;77.70
5868;DHT22;2960;49.142;7.768;2022-11-20T01:04:14;9.30;77.60
5868;DHT22;2960;49.142;7.768;2022-11-20T01:06:42;9.30;77.60
5868;DHT22;2960;49.142;7.768;2022-11-20T01:09:11;9.30;77.60
5868;DHT22;2960;49.142;7.768;2022-11-20T01:11:41;9.30;77.60
5868;DHT22;2960;49.142;7.768;2022-11-20T01:14:11;9.30;77.70
5868;DHT22;2960;49.142;7.768;2022-11-20T01:16:41;9.30;77.70
5868;DHT22;2960;49.142;7.768;2022-11-20T01:19:11;9.30;77.70
5868;DHT22;2960;49.142;7.768;2022-11-20T01:21:41;9.30;77.70
5868;DHT22;2960;49.142;7.768;2022-11-20T01:24:12;9.30;77.80
5868;DHT22;2960;49.142;7.768;2022-11-20T01:26:44;9.30;77.80
5868;DHT22;2960;49.142;7.768;2022-11-20T01:29:15;9.30;77.80
5868;DHT22;2960;49.142;7.768;2022-11-20T01:31:43;9.30;77.70
5868;DHT22;2960;49.142;7.768;2022-11-20T01:34:12;9.30;77.70
5868;DHT22;2960;49.142;7.768;2022-11-20T01:36:43;9.40;77.80
5868;DHT22;2960;49.142;7.768;2022-11-20T01:39:15;9.30;77.70
5868;DHT22;2960;49.142;7.768;2022-11-20T01:41:46;9.30;77.80
5868;DHT22;2960;49.142;7.768;2022-11-20T01:44:50;9.30;77.90
5868;DHT22;2960;49.142;7.768;2022-11-20T01:47:31;9.30;78.00
5868;DHT22;2960;49.142;7.768;2022-11-20T01:50:04;9.30;78.00
5868;DHT22;2960;49.142;7.768;2022-11-20T01:52:36;9.30;78.10
5868;DHT22;2960;49.142;7.768;2022-11-20T01:55:08;9.30;78.20
5868;DHT22;2960;49.142;7.768;2022-11-20T01:57:37;9.30;78.20
5868;DHT22;2960;49.142;7.768;2022-11-20T02:00:07;9.30;78.20
5868;DHT22;2960;49.142;7.768;2022-11-20T02:02:36;9.30;78.20
5868;DHT22;2960;49.142;7.768;2022-11-20T02:05:12;9.30;78.10
5868;DHT22;2960;49.142;7.768;2022-11-20T02:07:47;9.30;78.10
5868;DHT22;2960;49.142;7.768;2022-11-20T02:10:15;9.30;78.10
5868;DHT22;2960;49.142;7.768;2022-11-20T02:12:42;9.30;78.00
5868;DHT22;2960;49.142;7.768;2022-11-20T02:15:27;9.30;78.00
5868;DHT22;2960;49.142;7.768;2022-11-20T02:17:54;9.30;78.00
5868;DHT22;2960;49.142;7.768;2022-11-20T02:20:22;9.30;78.00
5868;DHT22;2960;49.142;7.768;2022-11-20T02:22:54;9.30;78.00
5868;DHT22;2960;49.142;7.768;2022-11-20T02:25:26;9.30;78.80
5868;DHT22;2960;49.142;7.768;2022-11-20T02:27:54;9.20;77.90
5868;DHT22;2960;49.142;7.768;2022-11-20T02:30:22;9.20;77.90
5868;DHT22;2960;49.142;7.768;2022-11-20T02:32:49;9.20;77.90
5868;DHT22;2960;49.142;7.768;2022-11-20T02:35:41;9.30;78.00
5868;DHT22;2960;49.142;7.768;2022-11-20T02:38:10;9.30;77.80
5868;DHT22;2960;49.142;7.768;2022-11-20T02:40:38;9.20;77.70
5868;DHT22;2960;49.142;7.768;2022-11-20T02:43:09;9.20;77.60
5868;DHT22;2960;49.142;7.768;2022-11-20T02:45:39;9.20;77.50
5868;DHT22;2960;49.142;7.768;2022-11-20T02:48:06;9.20;77.50
5868;DHT22;2960;49.142;7.768;2022-11-20T02:50:38;9.20;77.50
5868;DHT22;2960;49.142;7.768;2022-11-20T02:53:06;9.30;77.50
5868;DHT22;2960;49.142;7.768;2022-11-20T02:55:33;9.30;77.50
5868;DHT22;2960;49.142;7.768;2022-11-20T02:58:02;9.30;77.40
5868;DHT22;2960;49.142;7.768;2022-11-20T03:00:29;9.30;77.30
5868;DHT22;2960;49.142;7.768;2022-11-20T03:02:57;9.30;77.10
5868;DHT22;2960;49.142;7.768;2022-11-20T03:05:24;9.30;77.20
5868;DHT22;2960;49.142;7.768;2022-11-20T03:07:51;9.30;77.20
5868;DHT22;2960;49.142;7.768;2022-11-20T03:10:18;9.20;77.00
5868;DHT22;2960;49.142;7.768;2022-11-20T03:12:45;9.20;77.00
5868;DHT22;2960;49.142;7.768;2022-11-20T03:15:14;9.20;77.10
5868;DHT22;2960;49.142;7.768;2022-11-20T03:17:41;9.20;77.00
5868;DHT22;2960;49.142;7.768;2022-11-20T03:20:09;9.20;77.00
5868;DHT22;2960;49.142;7.768;2022-11-20T03:22:36;9.20;77.10
5868;DHT22;2960;49.142;7.768;2022-11-20T03:25:04;9.20;77.10
5868;DHT22;2960;49.142;7.768;2022-11-20T03:27:32;9.20;77.10
5868;DHT22;2960;49.142;7.768;2022-11-20T03:30:00;9.20;78.00
5868;DHT22;2960;49.142;7.768;2022-11-20T03:32:29;9.20;77.20
5868;DHT22;2960;49.142;7.768;2022-11-20T03:34:56;9.20;77.20
5868;DHT22;2960;49.142;7.768;2022-11-20T03:37:23;9.10;77.20
5868;DHT22;2960;49.142;7.768;2022-11-20T03:39:50;9.10;77.20
5868;DHT22;2960;49.142;7.768;2022-11-20T03:42:17;9.20;77.30
5868;DHT22;2960;49.142;7.768;2022-11-20T03:45:13;9.20;77.30
5868;DHT22;2960;49.142;7.768;2022-11-20T03:47:42;9.20;77.30
5868;DHT22;2960;49.142;7.768;2022-11-20T03:50:11;9.20;78.00
5868;DHT22;2960;49.142;7.768;2022-11-20T03:52:39;9.20;77.20
5868;DHT22;2960;49.142;7.768;2022-11-20T03:55:07;9.20;77.10
5868;DHT22;2960;49.142;7.768;2022-11-20T03:57:34;9.20;77.10
5868;DHT22;2960;49.142;7.768;2022-11-20T04:00:02;9.20;77.10
5868;DHT22;2960;49.142;7.768;2022-11-20T04:02:32;9.20;77.10
5868;DHT22;2960;49.142;7.768;2022-11-20T04:05:01;9.20;77.10
5868;DHT22;2960;49.142;7.768;2022-11-20T04:07:28;9.20;77.20
5868;DHT22;2960;49.142;7.768;2022-11-20T04:09:55;9.20;77.20
5868;DHT22;2960;49.142;7.768;2022-11-20T04:12:22;9.20;77.30
5868;DHT22;2960;49.142;7.768;2022-11-20T04:14:52;9.20;77.30
5868;DHT22;2960;49.142;7.768;2022-11-20T04:17:19;9.20;77.30
5868;DHT22;2960;49.142;7.768;2022-11-20T04:19:46;9.20;77.30
5868;DHT22;2960;49.142;7.768;2022-11-20T04:22:14;9.20;77.30
5868;DHT22;2960;49.142;7.768;2022-11-20T04:24:41;9.20;77.40
5868;DHT22;2960;49.142;7.768;2022-11-20T04:27:08;9.20;77.40
5868;DHT22;2960;49.142;7.768;2022-11-20T04:29:35;9.20;77.40
5868;DHT22;2960;49.142;7.768;2022-11-20T04:32:02;9.20;77.40
5868;DHT22;2960;49.142;7.768;2022-11-20T04:34:30;9.20;77.30
5868;DHT22;2960;49.142;7.768;2022-11-20T04:36:57;9.20;77.30
5868;DHT22;2960;49.142;7.768;2022-11-20T04:39:25;9.20;77.50
5868;DHT22;2960;49.142;7.768;2022-11-20T04:41:52;9.20;77.40
5868;DHT22;2960;49.142;7.768;2022-11-20T04:44:39;9.20;77.50
5868;DHT22;2960;49.142;7.768;2022-11-20T04:47:06;9.20;77.50
5868;DHT22;2960;49.142;7.768;2022-11-20T04:49:33;9.20;77.60
5868;DHT22;2960;49.142;7.768;2022-11-20T04:52:00;9.20;77.50
5868;DHT22;2960;49.142;7.768;2022-11-20T04:54:29;9.20;77.50
5868;DHT22;2960;49.142;7.768;2022-11-20T04:56:56;9.20;77.60
5868;DHT22;2960;49.142;7.768;2022-11-20T04:59:23;9.20;77.70
5868;DHT22;2960;49.142;7.768;2022-11-20T05:01:50;9.20;77.70
5868;DHT22;2960;49.142;7.768;2022-11-20T05:04:17;9.20;77.70
5868;DHT22;2960;49.142;7.768;2022-11-20T05:06:44;9.20;77.80
5868;DHT22;2960;49.142;7.768;2022-11-20T05:09:11;9.10;77.70
5868;DHT22;2960;49.142;7.768;2022-11-20T05:11:40;9.20;78.80
5868;DHT22;2960;49.142;7.768;2022-11-20T05:14:07;9.10;78.00
5868;DHT22;2960;49.142;7.768;2022-11-20T05:16:34;9.10;78.30
5868;DHT22;2960;49.142;7.768;2022-11-20T05:19:02;9.10;78.40
5868;DHT22;2960;49.142;7.768;2022-11-20T05:21:30;9.10;78.50
5868;DHT22;2960;49.142;7.768;2022-11-20T05:23:57;9.10;78.70
5868;DHT22;2960;49.142;7.768;2022-11-20T05:26:27;9.10;78.70
5868;DHT22;2960;49.142;7.768;2022-11-20T05:28:56;9.10;78.70
5868;DHT22;2960;49.142;7.768;2022-11-20T05:31:24;9.10;78.60
5868;DHT22;2960;49.142;7.768;2022-11-20T05:33:51;9.10;78.70
5868;DHT22;2960;49.142;7.768;2022-11-20T05:36:18;9.10;78.80
5868;DHT22;2960;49.142;7.768;2022-11-20T05:38:46;9.10;78.90
5868;DHT22;2960;49.142;7.768;2022-11-20T05:41:15;9.00;78.90
5868;DHT22;2960;49.142;7.768;2022-11-20T05:43:44;9.00;79.10
5868;DHT22;2960;49.142;7.768;2022-11-20T05:46:15;9.00;79.20
5868;DHT22;2960;49.142;7.768;2022-11-20T05:48:44;9.00;79.50
5868;DHT22;2960;49.142;7.768;2022-11-20T05:51:14;9.00;79.60
5868;DHT22;2960;49.142;7.768;2022-11-20T05:53:44;9.10;79.80
5868;DHT22;2960;49.142;7.768;2022-11-20T05:56:14;9.00;79.90
5868;DHT22;2960;49.142;7.768;2022-11-20T05:58:45;8.90;79.90
5868;DHT22;2960;49.142;7.768;2022-11-20T06:01:17;8.90;80.00
5868;DHT22;2960;49.142;7.768;2022-11-20T06:03:45;9.10;80.50
5868;DHT22;2960;49.142;7.768;2022-11-20T06:06:16;8.90;80.30
5868;DHT22;2960;49.142;7.768;2022-11-20T06:08:44;8.90;80.50
5868;DHT22;2960;49.142;7.768;2022-11-20T06:11:12;8.90;80.50
5868;DHT22;2960;49.142;7.768;2022-11-20T06:13:40;8.90;80.80
5868;DHT22;2960;49.142;7.768;2022-11-20T06:16:07;8.90;80.90
5868;DHT22;2960;49.142;7.768;2022-11-20T06:18:36;8.90;81.00
5868;DHT22;2960;49.142;7.768;2022-11-20T06:21:08;8.90;81.20
5868;DHT22;2960;49.142;7.768;2022-11-20T06:23:36;8.90;81.20
5868;DHT22;2960;49.142;7.768;2022-11-20T06:26:04;8.90;81.30
5868;DHT22;2960;49.142;7.768;2022-11-20T06:28:32;8.80;81.40
5868;DHT22;2960;49.142;7.768;2022-11-20T06:31:00;8.80;81.40
5868;DHT22;2960;49.142;7.768;2022-11-20T06:33:27;8.80;81.50
5868;DHT22;2960;49.142;7.768;2022-11-20T06:35:57;8.80;81.50
5868;DHT22;2960;49.142;7.768;2022-11-20T06:38:25;8.90;81.80
5868;DHT22;2960;49.142;7.768;2022-11-20T06:40:52;8.90;81.90
5868;DHT22;2960;49.142;7.768;2022-11-20T06:43:21;8.90;81.90
5868;DHT22;2960;49.142;7.768;2022-11-20T06:45:51;8.90;82.00
5868;DHT22;2960;49.142;7.768;2022-11-20T06:48:19;8.90;82.10
5868;DHT22;2960;49.142;7.768;2022-11-20T06:50:46;8.90;82.10
5868;DHT22;2960;49.142;7.768;2022-11-20T06:53:15;8.90;82.20
5868;DHT22;2960;49.142;7.768;2022-11-20T06:55:43;8.90;82.30
5868;DHT22;2960;49.142;7.768;2022-11-20T06:58:10;8.90;82.40
5868;DHT22;2960;49.142;7.768;2022-11-20T07:00:37;8.90;82.50
5868;DHT22;2960;49.142;7.768;2022-11-20T07:03:04;8.90;82.50
5868;DHT22;2960;49.142;7.768;2022-11-20T07:05:32;9.00;82.50
5868;DHT22;2960;49.142;7.768;2022-11-20T07:07:59;9.00;82.50
5868;DHT22;2960;49.142;7.768;2022-11-20T07:10:28;9.00;82.50
5868;DHT22;2960;49.142;7.768;2022-11-20T07:12:55;9.10;82.40
5868;DHT22;2960;49.142;7.768;2022-11-20T07:15:23;9.10;82.40
5868;DHT22;2960;49.142;7.768;2022-11-20T07:17:51;9.10;82.40
5868;DHT22;2960;49.142;7.768;2022-11-20T07:20:18;9.10;82.70
5868;DHT22;2960;49.142;7.768;2022-11-20T07:22:45;9.10;82.50
5868;DHT22;2960;49.142;7.768;2022-11-20T07:25:12;9.10;82.70
5868;DHT22;2960;49.142;7.768;2022-11-20T07:27:41;9.10;82.70
5868;DHT22;2960;49.142;7.768;2022-11-20T07:30:08;9.10;82.70
5868;DHT22;2960;49.142;7.768;2022-11-20T07:32:36;9.10;82.70
5868;DHT22;2960;49.142;7.768;2022-11-20T07:35:03;9.10;82.70
5868;DHT22;2960;49.142;7.768;2022-11-20T07:37:34;9.10;82.70
5868;DHT22;2960;49.142;7.768;2022-11-20T07:40:01;9.10;82.80
5868;DHT22;2960;49.142;7.768;2022-11-20T07:42:29;9.10;82.80
5868;DHT22;2960;49.142;7.768;2022-11-20T07:44:57;9.20;82.90
5868;DHT22;2960;49.142;7.768;2022-11-20T07:47:24;9.20;82.80
5868;DHT22;2960;49.142;7.768;2022-11-20T07:49:51;9.20;82.80
5868;DHT22;2960;49.142;7.768;2022-11-20T07:52:18;9.20;82.80
5868;DHT22;2960;49.142;7.768;2022-11-20T07:54:46;9.20;82.80
5868;DHT22;2960;49.142;7.768;2022-11-20T07:57:13;9.20;82.90
5868;DHT22;2960;49.142;7.768;2022-11-20T07:59:40;9.20;82.80
5868;DHT22;2960;49.142;7.768;2022-11-20T08:02:10;9.30;83.00
5868;DHT22;2960;49.142;7.768;2022-11-20T08:04:37;9.30;83.00
5868;DHT22;2960;49.142;7.768;2022-11-20T08:07:04;9.30;83.00
5868;DHT22;2960;49.142;7.768;2022-11-20T08:09:31;9.30;83.10
5868;DHT22;2960;49.142;7.768;2022-11-20T08:11:59;9.30;83.00
5868;DHT22;2960;49.142;7.768;2022-11-20T08:14:43;9.30;83.00
5868;DHT22;2960;49.142;7.768;2022-11-20T08:17:12;9.30;83.00
5868;DHT22;2960;49.142;7.768;2022-11-20T08:19:39;9.30;83.00
5868;DHT22;2960;49.142;7.768;2022-11-20T08:22:06;9.40;83.10
5868;DHT22;2960;49.142;7.768;2022-11-20T08:24:33;9.40;83.10
5868;DHT22;2960;49.142;7.768;2022-11-20T08:27:00;9.40;83.10
5868;DHT22;2960;49.142;7.768;2022-11-20T08:29:27;9.30;83.00
5868;DHT22;2960;49.142;7.768;2022-11-20T08:31:54;9.30;83.00
5868;DHT22;2960;49.142;7.768;2022-11-20T08:34:23;9.30;83.00
5868;DHT22;2960;49.142;7.768;2022-11-20T08:36:50;9.40;83.30
5868;DHT22;2960;49.142;7.768;2022-11-20T08:39:17;9.40;83.20
5868;DHT22;2960;49.142;7.768;2022-11-20T08:41:44;9.40;83.10
5868;DHT22;2960;49.142;7.768;2022-11-20T08:44:11;9.40;83.10
5868;DHT22;2960;49.142;7.768;2022-11-20T08:46:39;9.40;83.20
5868;DHT22;2960;49.142;7.768;2022-11-20T08:49:10;9.40;83.30
5868;DHT22;2960;49.142;7.768;2022-11-20T08:51:40;9.40;83.30
5868;DHT22;2960;49.142;7.768;2022-11-20T08:54:07;9.50;83.40
5868;DHT22;2960;49.142;7.768;2022-11-20T08:56:34;9.40;83.30
5868;DHT22;2960;49.142;7.768;2022-11-20T08:59:02;9.40;83.30
5868;DHT22;2960;49.142;7.768;2022-11-20T09:01:29;9.40;83.30
5868;DHT22;2960;49.142;7.768;2022-11-20T09:03:57;9.40;83.30
5868;DHT22;2960;49.142;7.768;2022-11-20T09:06:25;9.40;83.20
5868;DHT22;2960;49.142;7.768;2022-11-20T09:08:54;9.40;83.30
5868;DHT22;2960;49.142;7.768;2022-11-20T09:11:22;9.40;83.50
5868;DHT22;2960;49.142;7.768;2022-11-20T09:13:49;9.30;83.40
5868;DHT22;2960;49.142;7.768;2022-11-20T09:16:19;9.30;83.60
5868;DHT22;2960;49.142;7.768;2022-11-20T09:18:46;9.30;83.60
5868;DHT22;2960;49.142;7.768;2022-11-20T09:21:13;9.30;83.60
5868;DHT22;2960;49.142;7.768;2022-11-20T09:23:40;9.30;83.60
5868;DHT22;2960;49.142;7.768;2022-11-20T09:26:14;9.30;83.60
5868;DHT22;2960;49.142;7.768;2022-11-20T09:28:41;9.30;83.70
5868;DHT22;2960;49.142;7.768;2022-11-20T09:31:11;9.30;83.60
5868;DHT22;2960;49.142;7.768;2022-11-20T09:33:43;9.30;83.60
5868;DHT22;2960;49.142;7.768;2022-11-20T09:36:10;9.30;83.70
5868;DHT22;2960;49.142;7.768;2022-11-20T09:38:37;9.30;83.70
5868;DHT22;2960;49.142;7.768;2022-11-20T09:41:05;9.30;83.70
5868;DHT22;2960;49.142;7.768;2022-11-20T09:43:53;9.30;83.90
5868;DHT22;2960;49.142;7.768;2022-11-20T09:46:28;9.40;84.20
5868;DHT22;2960;49.142;7.768;2022-11-20T09:49:12;9.50;84.40
5868;DHT22;2960;49.142;7.768;2022-11-20T09:51:49;9.60;84.40
5868;DHT22;2960;49.142;7.768;2022-11-20T09:54:22;9.60;84.40
5868;DHT22;2960;49.142;7.768;2022-11-20T09:56:55;9.80;84.40
5868;DHT22;2960;49.142;7.768;2022-11-20T09:59:45;9.80;84.10
5868;DHT22;2960;49.142;7.768;2022-11-20T10:02:19;10.00;83.30
5868;DHT22;2960;49.142;7.768;2022-11-20T10:04:59;10.10;83.50
5868;DHT22;2960;49.142;7.768;2022-11-20T10:07:36;10.40;83.80
5868;DHT22;2960;49.142;7.768;2022-11-20T10:10:15;10.60;83.30
5868;DHT22;2960;49.142;7.768;2022-11-20T10:12:54;10.70;82.60
5868;DHT22;2960;49.142;7.768;2022-11-20T10:15:36;11.00;82.50
5868;DHT22;2960;49.142;7.768;2022-11-20T10:18:15;11.10;81.60
5868;DHT22;2960;49.142;7.768;2022-11-20T10:20:54;11.20;80.40
5868;DHT22;2960;49.142;7.768;2022-11-20T10:23:41;11.20;79.50
5868;DHT22;2960;49.142;7.768;2022-11-20T10:26:21;11.10;78.80
5868;DHT22;2960;49.142;7.768;2022-11-20T10:29:00;11.10;78.40
5868;DHT22;2960;49.142;7.768;2022-11-20T10:31:37;11.00;78.30
5868;DHT22;2960;49.142;7.768;2022-11-20T10:34:12;10.90;78.10
5868;DHT22;2960;49.142;7.768;2022-11-20T10:36:46;10.80;78.00
5868;DHT22;2960;49.142;7.768;2022-11-20T10:39:22;10.80;78.00
5868;DHT22;2960;49.142;7.768;2022-11-20T10:41:56;10.70;77.90
5868;DHT22;2960;49.142;7.768;2022-11-20T10:44:27;10.60;77.40
5868;DHT22;2960;49.142;7.768;2022-11-20T10:47:15;10.60;77.30
5868;DHT22;2960;49.142;7.768;2022-11-20T10:49:46;10.50;77.30
5868;DHT22;2960;49.142;7.768;2022-11-20T10:52:21;10.50;78.30
5868;DHT22;2960;49.142;7.768;2022-11-20T10:54:59;10.60;77.20
5868;DHT22;2960;49.142;7.768;2022-11-20T10:57:46;10.60;76.80
5868;DHT22;2960;49.142;7.768;2022-11-20T11:00:19;10.60;76.80
5868;DHT22;2960;49.142;7.768;2022-11-20T11:02:49;10.50;76.60
5868;DHT22;2960;49.142;7.768;2022-11-20T11:05:23;10.60;76.60
5868;DHT22;2960;49.142;7.768;2022-11-20T11:07:57;10.60;77.10
5868;DHT22;2960;49.142;7.768;2022-11-20T11:10:31;10.80;77.30
5868;DHT22;2960;49.142;7.768;2022-11-20T11:13:03;10.90;76.60
5868;DHT22;2960;49.142;7.768;2022-11-20T11:15:36;10.90;76.40
5868;DHT22;2960;49.142;7.768;2022-11-20T11:18:09;11.00;75.80
5868;DHT22;2960;49.142;7.768;2022-11-20T11:20:36;11.10;75.30
5868;DHT22;2960;49.142;7.768;2022-11-20T11:23:04;11.10;74.80
5868;DHT22;2960;49.142;7.768;2022-11-20T11:25:32;11.10;74.50
5868;DHT22;2960;49.142;7.768;2022-11-20T11:28:03;11.00;73.90
5868;DHT22;2960;49.142;7.768;2022-11-20T11:30:47;11.00;73.90
5868;DHT22;2960;49.142;7.768;2022-11-20T11:33:21;11.00;74.30
5868;DHT22;2960;49.142;7.768;2022-11-20T11:35:50;11.00;73.50
5868;DHT22;2960;49.142;7.768;2022-11-20T11:38:23;10.90;72.80
5868;DHT22;2960;49.142;7.768;2022-11-20T11:40:57;10.90;72.50
5868;DHT22;2960;49.142;7.768;2022-11-20T11:43:25;10.90;72.30
5868;DHT22;2960;49.142;7.768;2022-11-20T11:46:30;11.00;72.70
5868;DHT22;2960;49.142;7.768;2022-11-20T11:49:01;11.30;73.00
5868;DHT22;2960;49.142;7.768;2022-11-20T11:51:41;11.50;72.50
5868;DHT22;2960;49.142;7.768;2022-11-20T11:54:19;11.60;72.10
5868;DHT22;2960;49.142;7.768;2022-11-20T11:56:49;11.70;70.80
5868;DHT22;2960;49.142;7.768;2022-11-20T11:59:27;11.80;69.70
5868;DHT22;2960;49.142;7.768;2022-11-20T12:02:19;11.90;69.60
5868;DHT22;2960;49.142;7.768;2022-11-20T12:04:57;11.90;69.40
5868;DHT22;2960;49.142;7.768;2022-11-20T12:07:36;12.00;69.40
5868;DHT22;2960;49.142;7.768;2022-11-20T12:10:15;12.30;69.70
5868;DHT22;2960;49.142;7.768;2022-11-20T12:12:50;12.70;69.20
5868;DHT22;2960;49.142;7.768;2022-11-20T12:15:37;13.00;67.00
5868;DHT22;2960;49.142;7.768;2022-11-20T12:18:08;13.10;66.30
5868;DHT22;2960;49.142;7.768;2022-11-20T12:20:48;13.00;65.10
5868;DHT22;2960;49.142;7.768;2022-11-20T12:23:28;12.90;64.00
5868;DHT22;2960;49.142;7.768;2022-11-20T12:26:07;12.90;63.60
5868;DHT22;2960;49.142;7.768;2022-11-20T12:28:48;13.00;64.10
5868;DHT22;2960;49.142;7.768;2022-11-20T12:31:37;13.30;64.30
5868;DHT22;2960;49.142;7.768;2022-11-20T12:34:22;13.70;63.60
5868;DHT22;2960;49.142;7.768;2022-11-20T12:37:00;14.10;63.30
5868;DHT22;2960;49.142;7.768;2022-11-20T12:39:35;14.50;62.80
5868;DHT22;2960;49.142;7.768;2022-11-20T12:42:32;14.90;61.70
5868;DHT22;2960;49.142;7.768;2022-11-20T12:52:02;16.20;58.90
5868;DHT22;2960;49.142;7.768;2022-11-20T12:57:49;16.20;57.90
5868;DHT22;2960;49.142;7.768;2022-11-20T13:00:19;15.90;57.10
5868;DHT22;2960;49.142;7.768;2022-11-20T13:06:11;15.50;57.50
5868;DHT22;2960;49.142;7.768;2022-11-20T13:08:45;15.20;57.30
5868;DHT22;2960;49.142;7.768;2022-11-20T13:11:20;14.90;57.00
5868;DHT22;2960;49.142;7.768;2022-11-20T13:14:04;14.70;57.20
5868;DHT22;2960;49.142;7.768;2022-11-20T13:16:41;14.40;57.00
5868;DHT22;2960;49.142;7.768;2022-11-20T13:19:15;14.20;56.70
5868;DHT22;2960;49.142;7.768;2022-11-20T13:21:45;14.00;56.60
5868;DHT22;2960;49.142;7.768;2022-11-20T13:24:25;13.80;56.30
5868;DHT22;2960;49.142;7.768;2022-11-20T13:27:01;13.60;56.20
5868;DHT22;2960;49.142;7.768;2022-11-20T13:29:58;13.40;55.60
5868;DHT22;2960;49.142;7.768;2022-11-20T13:32:27;13.20;55.90
5868;DHT22;2960;49.142;7.768;2022-11-20T13:34:59;13.00;55.90
5868;DHT22;2960;49.142;7.768;2022-11-20T13:37:29;12.90;56.00
5868;DHT22;2960;49.142;7.768;2022-11-20T13:40:21;12.80;55.50
5868;DHT22;2960;49.142;7.768;2022-11-20T13:42:56;12.70;55.50
5868;DHT22;2960;49.142;7.768;2022-11-20T13:45:31;12.70;55.60
5868;DHT22;2960;49.142;7.768;2022-11-20T13:48:02;12.60;55.40
5868;DHT22;2960;49.142;7.768;2022-11-20T13:50:48;12.60;55.40
5868;DHT22;2960;49.142;7.768;2022-11-20T13:53:44;12.50;55.50
5868;DHT22;2960;49.142;7.768;2022-11-20T13:56:36;12.40;55.60
5868;DHT22;2960;49.142;7.768;2022-11-20T13:59:15;12.30;55.60
5868;DHT22;2960;49.142;7.768;2022-11-20T14:01:54;12.30;55.60
5868;DHT22;2960;49.142;7.768;2022-11-20T14:04:26;12.20;55.50
5868;DHT22;2960;49.142;7.768;2022-11-20T14:06:56;12.10;55.60
5868;DHT22;2960;49.142;7.768;2022-11-20T14:09:28;12.00;55.60
5868;DHT22;2960;49.142;7.768;2022-11-20T14:11:58;11.90;55.70
5868;DHT22;2960;49.142;7.768;2022-11-20T14:14:26;11.80;55.80
5868;DHT22;2960;49.142;7.768;2022-11-20T14:17:05;11.80;55.90
5868;DHT22;2960;49.142;7.768;2022-11-20T14:19:33;11.80;55.90
5868;DHT22;2960;49.142;7.768;2022-11-20T14:22:15;11.70;55.90
5868;DHT22;2960;49.142;7.768;2022-11-20T14:24:45;11.70;56.00
5868;DHT22;2960;49.142;7.768;2022-11-20T14:27:16;11.60;55.80
5868;DHT22;2960;49.142;7.768;2022-11-20T14:29:45;11.50;55.70
5868;DHT22;2960;49.142;7.768;2022-11-20T14:32:16;11.50;55.80
5868;DHT22;2960;49.142;7.768;2022-11-20T14:34:46;11.40;55.90
5868;DHT22;2960;49.142;7.768;2022-11-20T14:37:19;11.40;56.60
5868;DHT22;2960;49.142;7.768;2022-11-20T14:39:50;11.30;56.10
5868;DHT22;2960;49.142;7.768;2022-11-20T14:42:22;11.30;56.20
5868;DHT22;2960;49.142;7.768;2022-11-20T14:44:51;11.30;56.30
5868;DHT22;2960;49.142;7.768;2022-11-20T14:47:23;11.30;56.30
5868;DHT22;2960;49.142;7.768;2022-11-20T14:49:53;11.20;56.40
5868;DHT22;2960;49.142;7.768;2022-11-20T14:52:23;11.20;56.50
5868;DHT22;2960;49.142;7.768;2022-11-20T14:54:52;11.20;56.70
5868;DHT22;2960;49.142;7.768;2022-11-20T14:57:23;11.20;56.70
5868;DHT22;2960;49.142;7.768;2022-11-20T15:00:07;11.30;56.70
5868;DHT22;2960;49.142;7.768;2022-11-20T15:02:45;11.10;56.50
5868;DHT22;2960;49.142;7.768;2022-11-20T15:05:14;11.10;56.80
5868;DHT22;2960;49.142;7.768;2022-11-20T15:07:44;11.10;56.90
5868;DHT22;2960;49.142;7.768;2022-11-20T15:10:13;11.10;56.70
5868;DHT22;2960;49.142;7.768;2022-11-20T15:12:50;11.00;56.80
5868;DHT22;2960;49.142;7.768;2022-11-20T15:15:21;10.90;56.80
5868;DHT22;2960;49.142;7.768;2022-11-20T15:17:51;10.90;56.90
5868;DHT22;2960;49.142;7.768;2022-11-20T15:20:18;10.90;57.00
5868;DHT22;2960;49.142;7.768;2022-11-20T15:22:45;10.80;57.00
5868;DHT22;2960;49.142;7.768;2022-11-20T15:25:14;10.80;57.00
5868;DHT22;2960;49.142;7.768;2022-11-20T15:27:42;10.80;57.10
5868;DHT22;2960;49.142;7.768;2022-11-20T15:30:15;10.70;57.10
5868;DHT22;2960;49.142;7.768;2022-11-20T15:32:45;10.70;57.20
5868;DHT22;2960;49.142;7.768;2022-11-20T15:35:13;10.70;57.30
5868;DHT22;2960;49.142;7.768;2022-11-20T15:37:41;10.70;57.40
5868;DHT22;2960;49.142;7.768;2022-11-20T15:40:09;10.70;57.40
5868;DHT22;2960;49.142;7.768;2022-11-20T15:42:36;10.70;57.50
5868;DHT22;2960;49.142;7.768;2022-11-20T15:45:04;10.70;57.60
5868;DHT22;2960;49.142;7.768;2022-11-20T15:47:34;10.70;57.70
5868;DHT22;2960;49.142;7.768;2022-11-20T15:50:02;10.70;57.90
5868;DHT22;2960;49.142;7.768;2022-11-20T15:52:33;10.70;58.10
5868;DHT22;2960;49.142;7.768;2022-11-20T15:55:00;10.70;58.20
5868;DHT22;2960;49.142;7.768;2022-11-20T15:57:27;10.70;58.20
5868;DHT22;2960;49.142;7.768;2022-11-20T15:59:54;10.70;58.40
5868;DHT22;2960;49.142;7.768;2022-11-20T16:02:21;10.60;58.40
5868;DHT22;2960;49.142;7.768;2022-11-20T16:04:50;10.60;58.50
5868;DHT22;2960;49.142;7.768;2022-11-20T16:07:17;10.60;58.60
5868;DHT22;2960;49.142;7.768;2022-11-20T16:09:44;10.60;58.60
5868;DHT22;2960;49.142;7.768;2022-11-20T16:12:11;10.60;58.70
5868;DHT22;2960;49.142;7.768;2022-11-20T16:14:59;10.60;58.70
5868;DHT22;2960;49.142;7.768;2022-11-20T16:17:44;10.50;58.80
5868;DHT22;2960;49.142;7.768;2022-11-20T16:20:12;10.50;58.80
5868;DHT22;2960;49.142;7.768;2022-11-20T16:22:39;10.50;58.90
5868;DHT22;2960;49.142;7.768;2022-11-20T16:25:07;10.50;59.00
5868;DHT22;2960;49.142;7.768;2022-11-20T16:27:34;10.50;59.10
5868;DHT22;2960;49.142;7.768;2022-11-20T16:30:01;10.50;59.10
5868;DHT22;2960;49.142;7.768;2022-11-20T16:32:29;10.40;59.10
5868;DHT22;2960;49.142;7.768;2022-11-20T16:34:57;10.40;59.20
5868;DHT22;2960;49.142;7.768;2022-11-20T16:37:25;10.50;59.40
5868;DHT22;2960;49.142;7.768;2022-11-20T16:39:52;10.40;59.50
5868;DHT22;2960;49.142;7.768;2022-11-20T16:42:21;10.40;59.70
5868;DHT22;2960;49.142;7.768;2022-11-20T16:44:48;10.40;59.80
5868;DHT22;2960;49.142;7.768;2022-11-20T16:47:15;10.40;60.00
5868;DHT22;2960;49.142;7.768;2022-11-20T16:49:42;10.30;60.10